|
公历农历对照

机场天气预报 (TAF)

机场天气预报 (TAF) 载述关于某个机场在预测期内预料会出现的气象要素。

香港天文台在 18 年 08 月 14 日 14 时 30 分最新发出的香港国际机场天气预报

TAF AMD VHHH 140630Z 1406/1512 10015KT 9000 FEW015 SCT025 TX31/1406Z TX30/1506Z TN26/1422Z TEMPO 1406/1420 10020G30KT 3500 SHRA FEW010CB SCT020 TEMPO 1420/1506 13020G30KT 2500 TSRA +SHRA FEW010CB SCT020 TEMPO 1506/1512 13020G30KT 3500 SHRA FEW010CB SCT020=

(下次更新时间:18年08月14日19时00分)

机场天气预报电码经解码后:-

香港天文台发出 2018 年 08 月 14 日 06 协调世界时 至 2018 年 08 月 15 日 12 协调世界时 的机场天气预报:
 

时间(协调世界时) 能见度 天气状况 云层 云层高度
2018 年 08 月 14 日 06 时 至 2018 年 08 月 15 日 12 时 东风 (100 o) 15 海里/小时 9 公里 无重要天气状况
1-2
3-4
1500 呎
2500 呎
2018 年 08 月 14 日 06 时 至 20 时 期间间中 东风 (100 o) 20 海里/小时,阵风达 30 海里/小时 3500 米 骤雨
1-2 积雨云
3-4
1000 呎
2000 呎
2018 年 08 月 14 日 20 时 至 2018 年 08 月 15 日 06 时 期间间中 东南风 (130 o) 20 海里/小时,阵风达 30 海里/小时 2500 米 雷暴及雨, 大骤雨
1-2 积雨云
3-4
1000 呎
2000 呎
2018 年 08 月 15 日 06 时 至 12 时 期间间中 东南风 (130 o) 20 海里/小时,阵风达 30 海里/小时 3500 米 骤雨
1-2 积雨云
3-4
1000 呎
2000 呎

时间(协调世界时) 气温
2018 年 08 月 14 日 06 时
最高31 oC
2018 年 08 月 15 日 06 时
最高30 oC
2018 年 08 月 14 日 22 时
最低26 oC

份: 云层是以估计天空被云遮蔽之总面积来评定。把天空分为八份,1 份即是八份之一的天空被云遮蔽,2 份即是八份之二的天空被云遮蔽,如此类推。
  0 份 = 天朗气清,1-2 份 = 稀薄云层,3-4 份 = 零散云层,5-7 份 = 疏松云层,8 份 = 天色阴暗。
若想进一步了解机场天气预报(TAF)的编码,请参看剖析TAF电码的意义
若想进一步了解云,请参看香港常见的云
 
香港国际机场航空天气报告资料 本港地区航空天气预报
 
版权及声明